Terminal Aerodrome Forecast
Issued by NWS Blacksburg, VA

Current Version | Previous Version | Text Only | Print | Product List | Glossary Off
Versions: 1 2 3 4 5 6 7 8 9 10 11 12 13 14 15 16 17 18 19 20 21

000
FTUS41 KRNK 181138
TAFBLF
TAF
KBLF 181138Z 1812/1912 18007KT P6SM SCT050 BKN150
     FM181600 21011G19KT P6SM SCT060 OVC100
     FM182300 19008G18KT P6SM VCSH OVC030
     FM190100 20011G22KT 2SM SHRA OVC030
     FM190400 25014G24KT 6SM SHRA BR OVC025
     FM190600 28016G28KT P6SM -SHRA OVC025=

USA.gov is the U.S. government's official web portal to all federal, state and local government web resources and services.